sensor_id;sensor_type;location;lat;lon;timestamp;pressure;altitude;pressure_sealevel;temperature;humidity
37304;BME280;23188;51.188;16.374;2024-03-23T00:57:45;99418.38;;;10.54;100.00
37304;BME280;23188;51.188;16.374;2024-03-23T01:01:48;99416.37;;;10.49;100.00
37304;BME280;23188;51.188;16.374;2024-03-23T01:05:51;99405.70;;;10.43;100.00
37304;BME280;23188;51.188;16.374;2024-03-23T01:09:56;99394.80;;;10.42;100.00
37304;BME280;23188;51.188;16.374;2024-03-23T01:13:59;99387.79;;;10.43;100.00
37304;BME280;23188;51.188;16.374;2024-03-23T01:18:02;99377.91;;;10.39;100.00
37304;BME280;23188;51.188;16.374;2024-03-23T01:22:05;99365.03;;;10.36;100.00
37304;BME280;23188;51.188;16.374;2024-03-23T01:26:08;99359.23;;;10.26;100.00
37304;BME280;23188;51.188;16.374;2024-03-23T01:30:10;99358.88;;;10.23;100.00
37304;BME280;23188;51.188;16.374;2024-03-23T01:34:13;99352.07;;;10.18;100.00
37304;BME280;23188;51.188;16.374;2024-03-23T01:38:16;99349.65;;;10.23;100.00
37304;BME280;23188;51.188;16.374;2024-03-23T01:42:19;99338.65;;;10.28;100.00
37304;BME280;23188;51.188;16.374;2024-03-23T01:46:23;99337.43;;;10.32;100.00
37304;BME280;23188;51.188;16.374;2024-03-23T01:50:26;99331.80;;;10.39;100.00
37304;BME280;23188;51.188;16.374;2024-03-23T01:54:30;99325.97;;;10.47;100.00
37304;BME280;23188;51.188;16.374;2024-03-23T01:58:33;99310.34;;;10.53;100.00
37304;BME280;23188;51.188;16.374;2024-03-23T02:02:36;99307.87;;;10.54;100.00
37304;BME280;23188;51.188;16.374;2024-03-23T02:06:39;99309.81;;;10.62;100.00
37304;BME280;23188;51.188;16.374;2024-03-23T02:10:42;99313.27;;;10.68;100.00
37304;BME280;23188;51.188;16.374;2024-03-23T02:14:45;99313.44;;;10.76;100.00
37304;BME280;23188;51.188;16.374;2024-03-23T02:18:48;99309.23;;;10.80;100.00
37304;BME280;23188;51.188;16.374;2024-03-23T02:22:52;99308.54;;;10.80;100.00
37304;BME280;23188;51.188;16.374;2024-03-23T02:26:55;99304.20;;;10.87;100.00
37304;BME280;23188;51.188;16.374;2024-03-23T02:30:58;99301.12;;;10.91;100.00
37304;BME280;23188;51.188;16.374;2024-03-23T02:35:03;99301.76;;;10.94;100.00
37304;BME280;23188;51.188;16.374;2024-03-23T02:39:07;99293.29;;;11.00;100.00
37304;BME280;23188;51.188;16.374;2024-03-23T02:43:10;99294.23;;;11.05;100.00
37304;BME280;23188;51.188;16.374;2024-03-23T02:47:13;99290.35;;;11.10;100.00
37304;BME280;23188;51.188;16.374;2024-03-23T02:51:16;99286.76;;;11.16;100.00
37304;BME280;23188;51.188;16.374;2024-03-23T02:55:18;99282.07;;;11.17;100.00
37304;BME280;23188;51.188;16.374;2024-03-23T02:59:21;99277.16;;;11.14;100.00
37304;BME280;23188;51.188;16.374;2024-03-23T03:03:24;99268.44;;;11.18;100.00
37304;BME280;23188;51.188;16.374;2024-03-23T03:07:27;99261.66;;;11.22;100.00
37304;BME280;23188;51.188;16.374;2024-03-23T03:11:30;99255.19;;;11.25;100.00
37304;BME280;23188;51.188;16.374;2024-03-23T03:15:33;99247.92;;;11.28;100.00
37304;BME280;23188;51.188;16.374;2024-03-23T03:19:36;99244.16;;;11.29;100.00
37304;BME280;23188;51.188;16.374;2024-03-23T03:23:40;99241.15;;;11.21;100.00
37304;BME280;23188;51.188;16.374;2024-03-23T03:27:42;99241.32;;;11.13;100.00
37304;BME280;23188;51.188;16.374;2024-03-23T03:31:45;99231.93;;;11.11;100.00
37304;BME280;23188;51.188;16.374;2024-03-23T03:35:48;99225.80;;;11.10;100.00
37304;BME280;23188;51.188;16.374;2024-03-23T03:39:51;99223.55;;;11.02;100.00
37304;BME280;23188;51.188;16.374;2024-03-23T03:43:54;99219.63;;;10.88;100.00
37304;BME280;23188;51.188;16.374;2024-03-23T03:47:57;99222.88;;;10.77;100.00
37304;BME280;23188;51.188;16.374;2024-03-23T03:52:01;99216.09;;;10.65;100.00
37304;BME280;23188;51.188;16.374;2024-03-23T03:56:04;99215.27;;;10.51;100.00
37304;BME280;23188;51.188;16.374;2024-03-23T04:00:08;99218.48;;;10.49;100.00
37304;BME280;23188;51.188;16.374;2024-03-23T04:04:14;99217.34;;;10.48;100.00
37304;BME280;23188;51.188;16.374;2024-03-23T04:08:19;99214.60;;;10.46;100.00
37304;BME280;23188;51.188;16.374;2024-03-23T04:12:23;99204.46;;;10.33;100.00
37304;BME280;23188;51.188;16.374;2024-03-23T04:16:27;99199.85;;;10.26;100.00
37304;BME280;23188;51.188;16.374;2024-03-23T04:20:30;99195.20;;;10.23;100.00
37304;BME280;23188;51.188;16.374;2024-03-23T04:24:34;99198.20;;;10.11;100.00
37304;BME280;23188;51.188;16.374;2024-03-23T04:28:37;99202.34;;;9.92;100.00
37304;BME280;23188;51.188;16.374;2024-03-23T04:32:40;99204.70;;;9.78;100.00
37304;BME280;23188;51.188;16.374;2024-03-23T04:36:44;99201.64;;;9.75;100.00
37304;BME280;23188;51.188;16.374;2024-03-23T04:40:57;99201.27;;;9.72;100.00
37304;BME280;23188;51.188;16.374;2024-03-23T04:45:00;99213.13;;;9.70;100.00
37304;BME280;23188;51.188;16.374;2024-03-23T04:49:03;99211.07;;;9.69;100.00
37304;BME280;23188;51.188;16.374;2024-03-23T04:53:07;99200.73;;;9.68;100.00
37304;BME280;23188;51.188;16.374;2024-03-23T04:57:10;99196.08;;;9.63;100.00
37304;BME280;23188;51.188;16.374;2024-03-23T05:01:13;99194.05;;;9.52;100.00
37304;BME280;23188;51.188;16.374;2024-03-23T05:05:16;99190.17;;;9.52;100.00
37304;BME280;23188;51.188;16.374;2024-03-23T05:09:19;99184.42;;;9.55;100.00
37304;BME280;23188;51.188;16.374;2024-03-23T05:13:22;99178.10;;;9.58;100.00
37304;BME280;23188;51.188;16.374;2024-03-23T05:17:25;99163.25;;;9.60;100.00
37304;BME280;23188;51.188;16.374;2024-03-23T05:21:28;99162.13;;;9.59;100.00
37304;BME280;23188;51.188;16.374;2024-03-23T05:25:31;99155.13;;;9.49;100.00
37304;BME280;23188;51.188;16.374;2024-03-23T05:29:34;99148.86;;;9.42;100.00
37304;BME280;23188;51.188;16.374;2024-03-23T05:33:37;99144.45;;;9.49;100.00
37304;BME280;23188;51.188;16.374;2024-03-23T05:37:43;99145.57;;;9.58;100.00
37304;BME280;23188;51.188;16.374;2024-03-23T05:41:47;99152.66;;;9.63;100.00
37304;BME280;23188;51.188;16.374;2024-03-23T05:45:57;99158.33;;;9.73;100.00
37304;BME280;23188;51.188;16.374;2024-03-23T05:50:00;99162.27;;;9.81;100.00
37304;BME280;23188;51.188;16.374;2024-03-23T05:54:04;99152.89;;;9.65;100.00
37304;BME280;23188;51.188;16.374;2024-03-23T05:58:07;99146.48;;;9.45;100.00
37304;BME280;23188;51.188;16.374;2024-03-23T06:02:10;99141.20;;;9.42;100.00
37304;BME280;23188;51.188;16.374;2024-03-23T06:06:13;99133.17;;;9.45;100.00
37304;BME280;23188;51.188;16.374;2024-03-23T06:10:16;99114.34;;;9.44;100.00
37304;BME280;23188;51.188;16.374;2024-03-23T06:14:18;99108.64;;;9.70;100.00
37304;BME280;23188;51.188;16.374;2024-03-23T06:18:21;99105.10;;;10.20;100.00
37304;BME280;23188;51.188;16.374;2024-03-23T06:22:24;99097.15;;;10.70;100.00
37304;BME280;23188;51.188;16.374;2024-03-23T06:26:27;99088.53;;;11.15;100.00
37304;BME280;23188;51.188;16.374;2024-03-23T06:30:30;99091.67;;;11.34;100.00
37304;BME280;23188;51.188;16.374;2024-03-23T06:34:34;99088.58;;;11.52;100.00
37304;BME280;23188;51.188;16.374;2024-03-23T06:38:37;99082.94;;;11.69;100.00
37304;BME280;23188;51.188;16.374;2024-03-23T06:42:40;99067.70;;;11.94;100.00
37304;BME280;23188;51.188;16.374;2024-03-23T06:46:43;99060.94;;;12.19;100.00
37304;BME280;23188;51.188;16.374;2024-03-23T06:50:47;99052.03;;;12.54;100.00
37304;BME280;23188;51.188;16.374;2024-03-23T06:54:50;99031.40;;;12.91;100.00
37304;BME280;23188;51.188;16.374;2024-03-23T06:58:53;99025.22;;;13.18;100.00
37304;BME280;23188;51.188;16.374;2024-03-23T07:02:56;99018.05;;;13.33;100.00
37304;BME280;23188;51.188;16.374;2024-03-23T07:06:59;99012.02;;;13.64;100.00
37304;BME280;23188;51.188;16.374;2024-03-23T07:11:02;99008.14;;;13.86;100.00
37304;BME280;23188;51.188;16.374;2024-03-23T07:15:05;99000.29;;;14.04;100.00
37304;BME280;23188;51.188;16.374;2024-03-23T07:19:08;98981.90;;;14.30;99.47
37304;BME280;23188;51.188;16.374;2024-03-23T07:23:11;98957.89;;;14.48;99.06
37304;BME280;23188;51.188;16.374;2024-03-23T07:27:14;98942.11;;;14.58;99.92
37304;BME280;23188;51.188;16.374;2024-03-23T07:31:17;98937.27;;;14.43;99.89
37304;BME280;23188;51.188;16.374;2024-03-23T07:35:20;98948.89;;;14.29;100.00
37304;BME280;23188;51.188;16.374;2024-03-23T07:39:22;98959.35;;;14.18;100.00
37304;BME280;23188;51.188;16.374;2024-03-23T07:43:25;98955.75;;;14.17;99.31
37304;BME280;23188;51.188;16.374;2024-03-23T07:47:28;98935.95;;;14.11;95.98
37304;BME280;23188;51.188;16.374;2024-03-23T07:51:31;98927.64;;;14.11;97.24
37304;BME280;23188;51.188;16.374;2024-03-23T07:55:35;98924.33;;;13.98;97.22
37304;BME280;23188;51.188;16.374;2024-03-23T07:59:38;98915.62;;;13.81;99.03
37304;BME280;23188;51.188;16.374;2024-03-23T08:03:42;98906.09;;;13.70;100.00
37304;BME280;23188;51.188;16.374;2024-03-23T08:07:45;98884.17;;;13.68;100.00
37304;BME280;23188;51.188;16.374;2024-03-23T08:11:48;98875.06;;;13.64;100.00
37304;BME280;23188;51.188;16.374;2024-03-23T08:15:51;98861.66;;;13.70;100.00
37304;BME280;23188;51.188;16.374;2024-03-23T08:19:54;98851.65;;;13.77;100.00
37304;BME280;23188;51.188;16.374;2024-03-23T08:23:57;98834.95;;;13.87;100.00
37304;BME280;23188;51.188;16.374;2024-03-23T08:28:00;98830.27;;;14.04;100.00
37304;BME280;23188;51.188;16.374;2024-03-23T08:32:03;98827.41;;;14.22;100.00
37304;BME280;23188;51.188;16.374;2024-03-23T08:36:07;98821.14;;;14.30;100.00
37304;BME280;23188;51.188;16.374;2024-03-23T08:40:10;98808.11;;;14.29;100.00
37304;BME280;23188;51.188;16.374;2024-03-23T08:44:13;98797.02;;;14.30;100.00
37304;BME280;23188;51.188;16.374;2024-03-23T08:48:16;98777.14;;;14.29;100.00
37304;BME280;23188;51.188;16.374;2024-03-23T08:52:20;98770.56;;;14.32;100.00
37304;BME280;23188;51.188;16.374;2024-03-23T08:56:25;98767.36;;;14.63;100.00
37304;BME280;23188;51.188;16.374;2024-03-23T09:00:28;98752.48;;;14.87;99.80
37304;BME280;23188;51.188;16.374;2024-03-23T09:04:31;98745.55;;;15.00;97.37
37304;BME280;23188;51.188;16.374;2024-03-23T09:08:34;98736.81;;;15.10;98.53
37304;BME280;23188;51.188;16.374;2024-03-23T09:12:39;98728.02;;;15.12;96.81
37304;BME280;23188;51.188;16.374;2024-03-23T09:16:42;98716.77;;;15.02;96.88
37304;BME280;23188;51.188;16.374;2024-03-23T09:20:44;98713.17;;;14.95;97.39
37304;BME280;23188;51.188;16.374;2024-03-23T09:24:47;98700.94;;;14.85;98.21
37304;BME280;23188;51.188;16.374;2024-03-23T09:28:50;98701.70;;;14.67;97.18
37304;BME280;23188;51.188;16.374;2024-03-23T09:32:53;98703.36;;;14.57;94.69
37304;BME280;23188;51.188;16.374;2024-03-23T09:36:56;98727.74;;;14.54;96.25
37304;BME280;23188;51.188;16.374;2024-03-23T09:40:59;98737.81;;;14.53;97.41
37304;BME280;23188;51.188;16.374;2024-03-23T09:45:02;98729.64;;;14.46;98.25
37304;BME280;23188;51.188;16.374;2024-03-23T09:49:09;98716.08;;;14.40;99.14
37304;BME280;23188;51.188;16.374;2024-03-23T09:53:13;98708.39;;;14.45;100.00
37304;BME280;23188;51.188;16.374;2024-03-23T09:57:16;98700.81;;;14.65;100.00
37304;BME280;23188;51.188;16.374;2024-03-23T10:01:19;98686.49;;;14.97;100.00
37304;BME280;23188;51.188;16.374;2024-03-23T10:05:23;98665.31;;;15.33;99.41
37304;BME280;23188;51.188;16.374;2024-03-23T10:09:36;98661.36;;;15.72;99.59
37304;BME280;23188;51.188;16.374;2024-03-23T10:13:41;98659.02;;;16.09;94.31
37304;BME280;23188;51.188;16.374;2024-03-23T10:17:45;98648.82;;;16.42;91.95
37304;BME280;23188;51.188;16.374;2024-03-23T10:21:55;98631.70;;;16.76;90.94
37304;BME280;23188;51.188;16.374;2024-03-23T10:26:20;98626.75;;;17.04;85.57
37304;BME280;23188;51.188;16.374;2024-03-23T10:30:30;98614.84;;;17.13;84.71
37304;BME280;23188;51.188;16.374;2024-03-23T10:34:34;98606.51;;;17.22;85.38
37304;BME280;23188;51.188;16.374;2024-03-23T10:38:40;98610.66;;;17.30;82.29
37304;BME280;23188;51.188;16.374;2024-03-23T10:42:46;98607.56;;;17.33;83.16
37304;BME280;23188;51.188;16.374;2024-03-23T10:46:49;98598.02;;;17.37;82.79
37304;BME280;23188;51.188;16.374;2024-03-23T10:50:53;98588.35;;;17.42;81.68
37304;BME280;23188;51.188;16.374;2024-03-23T10:54:57;98579.31;;;17.57;81.51
37304;BME280;23188;51.188;16.374;2024-03-23T10:59:03;98575.48;;;17.71;81.88
37304;BME280;23188;51.188;16.374;2024-03-23T11:03:30;98569.51;;;17.81;79.91
37304;BME280;23188;51.188;16.374;2024-03-23T11:07:34;98560.81;;;17.85;78.29
37304;BME280;23188;51.188;16.374;2024-03-23T11:11:37;98557.32;;;17.73;77.51
37304;BME280;23188;51.188;16.374;2024-03-23T11:15:39;98550.55;;;17.67;79.31
37304;BME280;23188;51.188;16.374;2024-03-23T11:19:42;98543.75;;;17.63;79.82
37304;BME280;23188;51.188;16.374;2024-03-23T11:23:49;98568.77;;;17.56;84.19
37304;BME280;23188;51.188;16.374;2024-03-23T11:27:56;98562.41;;;17.33;82.83
37304;BME280;23188;51.188;16.374;2024-03-23T11:32:02;98551.88;;;16.94;80.39
37304;BME280;23188;51.188;16.374;2024-03-23T11:36:07;98550.57;;;16.62;80.13
37304;BME280;23188;51.188;16.374;2024-03-23T11:40:17;98549.23;;;16.42;82.01
37304;BME280;23188;51.188;16.374;2024-03-23T11:44:22;98545.08;;;16.37;82.69
37304;BME280;23188;51.188;16.374;2024-03-23T11:48:25;98536.40;;;16.32;81.78
37304;BME280;23188;51.188;16.374;2024-03-23T11:52:29;98553.08;;;16.34;81.47
37304;BME280;23188;51.188;16.374;2024-03-23T11:56:32;98562.52;;;16.24;80.49
37304;BME280;23188;51.188;16.374;2024-03-23T12:00:36;98573.03;;;16.08;80.87
37304;BME280;23188;51.188;16.374;2024-03-23T12:04:39;98569.46;;;15.87;80.72
37304;BME280;23188;51.188;16.374;2024-03-23T12:08:42;98583.04;;;15.69;81.90
37304;BME280;23188;51.188;16.374;2024-03-23T12:12:45;98593.42;;;15.56;81.58
37304;BME280;23188;51.188;16.374;2024-03-23T12:16:48;98593.89;;;15.26;84.37
37304;BME280;23188;51.188;16.374;2024-03-23T12:20:51;98601.67;;;14.95;88.10
37304;BME280;23188;51.188;16.374;2024-03-23T12:24:54;98606.48;;;14.67;93.63
37304;BME280;23188;51.188;16.374;2024-03-23T12:28:57;98617.91;;;14.40;95.80
37304;BME280;23188;51.188;16.374;2024-03-23T12:33:01;98651.58;;;13.65;98.72
37304;BME280;23188;51.188;16.374;2024-03-23T12:37:04;98652.43;;;13.12;100.00
37304;BME280;23188;51.188;16.374;2024-03-23T12:41:08;98654.42;;;12.74;100.00
37304;BME280;23188;51.188;16.374;2024-03-23T12:45:13;98656.01;;;12.56;100.00
37304;BME280;23188;51.188;16.374;2024-03-23T12:49:15;98670.08;;;12.57;100.00
37304;BME280;23188;51.188;16.374;2024-03-23T12:53:18;98668.12;;;12.60;100.00
37304;BME280;23188;51.188;16.374;2024-03-23T12:57:22;98688.17;;;12.48;100.00
37304;BME280;23188;51.188;16.374;2024-03-23T13:01:26;98697.26;;;12.29;100.00
37304;BME280;23188;51.188;16.374;2024-03-23T13:05:29;98709.72;;;12.23;100.00
37304;BME280;23188;51.188;16.374;2024-03-23T13:09:32;98730.98;;;12.23;100.00
37304;BME280;23188;51.188;16.374;2024-03-23T13:13:34;98766.61;;;11.92;100.00
37304;BME280;23188;51.188;16.374;2024-03-23T13:17:37;98809.46;;;11.06;100.00
37304;BME280;23188;51.188;16.374;2024-03-23T13:21:40;98811.55;;;10.38;100.00
37304;BME280;23188;51.188;16.374;2024-03-23T13:25:53;98812.52;;;9.98;100.00
37304;BME280;23188;51.188;16.374;2024-03-23T13:29:56;98855.89;;;9.29;100.00
37304;BME280;23188;51.188;16.374;2024-03-23T13:34:00;98881.90;;;8.59;100.00
37304;BME280;23188;51.188;16.374;2024-03-23T13:38:03;98911.90;;;8.12;100.00
37304;BME280;23188;51.188;16.374;2024-03-23T13:42:06;98936.88;;;7.96;100.00
37304;BME280;23188;51.188;16.374;2024-03-23T13:46:11;98948.91;;;7.76;100.00
37304;BME280;23188;51.188;16.374;2024-03-23T13:50:14;98959.25;;;7.59;100.00
37304;BME280;23188;51.188;16.374;2024-03-23T13:54:17;98971.16;;;7.44;100.00
37304;BME280;23188;51.188;16.374;2024-03-23T13:58:20;98994.66;;;7.42;100.00
37304;BME280;23188;51.188;16.374;2024-03-23T14:02:23;99022.79;;;7.41;100.00
37304;BME280;23188;51.188;16.374;2024-03-23T14:06:27;99052.97;;;7.34;100.00
37304;BME280;23188;51.188;16.374;2024-03-23T14:10:30;99069.70;;;7.21;100.00
37304;BME280;23188;51.188;16.374;2024-03-23T14:14:33;99088.65;;;7.11;100.00
37304;BME280;23188;51.188;16.374;2024-03-23T14:18:36;99076.73;;;6.98;100.00
37304;BME280;23188;51.188;16.374;2024-03-23T14:22:39;99100.64;;;6.93;100.00
37304;BME280;23188;51.188;16.374;2024-03-23T14:26:44;99103.56;;;6.81;100.00
37304;BME280;23188;51.188;16.374;2024-03-23T14:30:46;99103.77;;;6.70;100.00
37304;BME280;23188;51.188;16.374;2024-03-23T14:34:49;99112.64;;;6.61;100.00
37304;BME280;23188;51.188;16.374;2024-03-23T14:38:54;99136.66;;;6.58;100.00
37304;BME280;23188;51.188;16.374;2024-03-23T14:42:57;99139.33;;;6.62;100.00
37304;BME280;23188;51.188;16.374;2024-03-23T14:47:00;99125.48;;;6.80;100.00
37304;BME280;23188;51.188;16.374;2024-03-23T14:51:03;99130.66;;;6.90;100.00
37304;BME280;23188;51.188;16.374;2024-03-23T14:55:11;99118.34;;;6.98;100.00
37304;BME280;23188;51.188;16.374;2024-03-23T14:59:14;99139.92;;;6.91;100.00
37304;BME280;23188;51.188;16.374;2024-03-23T15:03:17;99164.30;;;6.78;100.00
37304;BME280;23188;51.188;16.374;2024-03-23T15:07:20;99174.27;;;6.74;100.00
37304;BME280;23188;51.188;16.374;2024-03-23T15:11:22;99164.55;;;6.72;100.00
37304;BME280;23188;51.188;16.374;2024-03-23T15:15:25;99167.45;;;6.71;100.00
37304;BME280;23188;51.188;16.374;2024-03-23T15:19:28;99180.28;;;6.67;100.00
37304;BME280;23188;51.188;16.374;2024-03-23T15:23:32;99180.19;;;6.73;100.00
37304;BME280;23188;51.188;16.374;2024-03-23T15:27:35;99179.97;;;6.62;100.00
37304;BME280;23188;51.188;16.374;2024-03-23T15:31:38;99193.05;;;6.60;100.00
37304;BME280;23188;51.188;16.374;2024-03-23T15:35:40;99197.54;;;6.57;100.00
37304;BME280;23188;51.188;16.374;2024-03-23T15:39:43;99185.85;;;6.53;100.00
37304;BME280;23188;51.188;16.374;2024-03-23T15:43:46;99195.26;;;6.50;100.00
37304;BME280;23188;51.188;16.374;2024-03-23T15:47:49;99210.94;;;6.43;100.00
37304;BME280;23188;51.188;16.374;2024-03-23T15:51:52;99225.71;;;6.37;100.00
37304;BME280;23188;51.188;16.374;2024-03-23T15:56:02;99233.67;;;6.37;100.00
37304;BME280;23188;51.188;16.374;2024-03-23T16:00:06;99219.35;;;6.29;100.00
37304;BME280;23188;51.188;16.374;2024-03-23T16:04:09;99220.23;;;6.31;100.00
37304;BME280;23188;51.188;16.374;2024-03-23T16:08:12;99207.74;;;6.28;100.00
37304;BME280;23188;51.188;16.374;2024-03-23T16:12:14;99210.05;;;6.32;100.00
37304;BME280;23188;51.188;16.374;2024-03-23T16:16:17;99217.56;;;6.27;100.00
37304;BME280;23188;51.188;16.374;2024-03-23T16:20:23;99226.41;;;6.15;100.00
37304;BME280;23188;51.188;16.374;2024-03-23T16:24:26;99229.92;;;6.11;100.00
37304;BME280;23188;51.188;16.374;2024-03-23T16:28:31;99244.23;;;6.08;99.52
37304;BME280;23188;51.188;16.374;2024-03-23T16:32:34;99259.67;;;6.06;100.00
37304;BME280;23188;51.188;16.374;2024-03-23T16:36:39;99257.48;;;5.94;99.51
37304;BME280;23188;51.188;16.374;2024-03-23T16:44:58;99275.18;;;5.90;100.00
37304;BME280;23188;51.188;16.374;2024-03-23T16:49:02;99272.73;;;5.90;100.00
37304;BME280;23188;51.188;16.374;2024-03-23T16:53:05;99272.73;;;5.90;100.00
37304;BME280;23188;51.188;16.374;2024-03-23T16:57:08;99268.67;;;5.88;100.00
37304;BME280;23188;51.188;16.374;2024-03-23T17:01:37;99289.58;;;5.83;100.00
37304;BME280;23188;51.188;16.374;2024-03-23T17:05:40;99307.73;;;5.78;100.00
37304;BME280;23188;51.188;16.374;2024-03-23T17:09:48;99285.67;;;5.70;100.00
37304;BME280;23188;51.188;16.374;2024-03-23T17:13:51;99267.10;;;5.69;100.00
37304;BME280;23188;51.188;16.374;2024-03-23T17:18:10;99260.10;;;5.69;100.00
37304;BME280;23188;51.188;16.374;2024-03-23T17:22:13;99272.42;;;5.66;100.00
37304;BME280;23188;51.188;16.374;2024-03-23T17:26:16;99278.84;;;5.65;100.00
37304;BME280;23188;51.188;16.374;2024-03-23T17:30:23;99298.41;;;5.60;100.00
37304;BME280;23188;51.188;16.374;2024-03-23T17:34:33;99334.15;;;5.64;100.00
37304;BME280;23188;51.188;16.374;2024-03-23T17:38:36;99369.77;;;5.72;100.00
37304;BME280;23188;51.188;16.374;2024-03-23T17:42:40;99387.96;;;5.74;100.00
37304;BME280;23188;51.188;16.374;2024-03-23T17:46:43;99380.77;;;5.80;100.00
37304;BME280;23188;51.188;16.374;2024-03-23T17:50:46;99361.52;;;5.77;100.00
37304;BME280;23188;51.188;16.374;2024-03-23T17:54:49;99360.96;;;5.82;100.00
37304;BME280;23188;51.188;16.374;2024-03-23T17:58:52;99355.17;;;5.88;100.00
37304;BME280;23188;51.188;16.374;2024-03-23T18:02:55;99366.52;;;5.97;100.00
37304;BME280;23188;51.188;16.374;2024-03-23T18:06:58;99378.02;;;5.98;100.00
37304;BME280;23188;51.188;16.374;2024-03-23T18:11:29;99391.69;;;5.90;100.00
37304;BME280;23188;51.188;16.374;2024-03-23T18:15:33;99401.54;;;5.83;100.00
37304;BME280;23188;51.188;16.374;2024-03-23T18:19:36;99411.34;;;5.79;100.00
37304;BME280;23188;51.188;16.374;2024-03-23T18:23:39;99418.05;;;5.76;100.00
37304;BME280;23188;51.188;16.374;2024-03-23T18:27:42;99405.85;;;5.74;100.00
37304;BME280;23188;51.188;16.374;2024-03-23T18:31:45;99406.64;;;5.76;100.00
37304;BME280;23188;51.188;16.374;2024-03-23T18:35:52;99408.59;;;5.78;100.00
37304;BME280;23188;51.188;16.374;2024-03-23T18:44:51;99402.09;;;5.83;100.00
37304;BME280;23188;51.188;16.374;2024-03-23T18:48:54;99389.36;;;5.85;100.00
37304;BME280;23188;51.188;16.374;2024-03-23T18:52:57;99390.61;;;5.87;100.00
37304;BME280;23188;51.188;16.374;2024-03-23T18:57:02;99390.59;;;5.85;100.00
37304;BME280;23188;51.188;16.374;2024-03-23T19:01:06;99387.47;;;5.85;100.00
37304;BME280;23188;51.188;16.374;2024-03-23T19:05:17;99397.30;;;5.88;100.00
37304;BME280;23188;51.188;16.374;2024-03-23T19:09:20;99396.56;;;5.88;100.00
37304;BME280;23188;51.188;16.374;2024-03-23T19:13:24;99381.80;;;5.88;100.00
37304;BME280;23188;51.188;16.374;2024-03-23T19:17:28;99372.12;;;5.88;100.00
37304;BME280;23188;51.188;16.374;2024-03-23T19:21:31;99369.69;;;5.87;100.00
37304;BME280;23188;51.188;16.374;2024-03-23T19:25:35;99367.34;;;5.86;100.00
37304;BME280;23188;51.188;16.374;2024-03-23T19:29:39;99351.06;;;5.80;100.00
37304;BME280;23188;51.188;16.374;2024-03-23T19:33:42;99350.27;;;5.74;100.00
37304;BME280;23188;51.188;16.374;2024-03-23T19:37:45;99340.52;;;5.66;100.00
37304;BME280;23188;51.188;16.374;2024-03-23T19:42:15;99335.35;;;5.55;100.00
37304;BME280;23188;51.188;16.374;2024-03-23T19:46:21;99331.70;;;5.45;100.00
37304;BME280;23188;51.188;16.374;2024-03-23T19:50:26;99329.46;;;5.40;100.00
37304;BME280;23188;51.188;16.374;2024-03-23T19:54:29;99324.50;;;5.36;100.00
37304;BME280;23188;51.188;16.374;2024-03-23T19:58:34;99314.48;;;5.41;100.00
37304;BME280;23188;51.188;16.374;2024-03-23T20:02:37;99306.68;;;5.44;100.00
37304;BME280;23188;51.188;16.374;2024-03-23T20:06:40;99309.45;;;5.47;100.00
37304;BME280;23188;51.188;16.374;2024-03-23T20:10:46;99319.66;;;5.44;100.00
37304;BME280;23188;51.188;16.374;2024-03-23T20:14:50;99314.08;;;5.41;100.00
37304;BME280;23188;51.188;16.374;2024-03-23T20:18:56;99320.19;;;5.39;100.00
37304;BME280;23188;51.188;16.374;2024-03-23T20:22:59;99319.44;;;5.40;100.00
37304;BME280;23188;51.188;16.374;2024-03-23T20:27:02;99312.39;;;5.43;100.00
37304;BME280;23188;51.188;16.374;2024-03-23T20:31:05;99307.52;;;5.42;100.00
37304;BME280;23188;51.188;16.374;2024-03-23T20:35:20;99301.86;;;5.40;100.00
37304;BME280;23188;51.188;16.374;2024-03-23T20:39:23;99305.19;;;5.38;100.00
37304;BME280;23188;51.188;16.374;2024-03-23T20:43:27;99308.27;;;5.39;100.00
37304;BME280;23188;51.188;16.374;2024-03-23T20:47:30;99303.71;;;5.39;100.00
37304;BME280;23188;51.188;16.374;2024-03-23T20:51:33;99302.86;;;5.38;100.00
37304;BME280;23188;51.188;16.374;2024-03-23T20:55:37;99304.33;;;5.38;100.00
37304;BME280;23188;51.188;16.374;2024-03-23T20:59:40;99300.91;;;5.36;100.00
37304;BME280;23188;51.188;16.374;2024-03-23T21:03:44;99308.67;;;5.36;100.00
37304;BME280;23188;51.188;16.374;2024-03-23T21:07:48;99315.11;;;5.35;100.00
37304;BME280;23188;51.188;16.374;2024-03-23T21:11:51;99314.73;;;5.33;100.00
37304;BME280;23188;51.188;16.374;2024-03-23T21:15:54;99310.94;;;5.26;100.00
37304;BME280;23188;51.188;16.374;2024-03-23T21:20:03;99309.33;;;5.20;100.00
37304;BME280;23188;51.188;16.374;2024-03-23T21:24:08;99302.27;;;5.18;100.00
37304;BME280;23188;51.188;16.374;2024-03-23T21:28:22;99294.89;;;5.16;100.00
37304;BME280;23188;51.188;16.374;2024-03-23T21:32:27;99306.42;;;5.12;100.00
37304;BME280;23188;51.188;16.374;2024-03-23T21:36:41;99321.92;;;5.04;100.00
37304;BME280;23188;51.188;16.374;2024-03-23T21:45:53;99312.68;;;4.88;100.00
37304;BME280;23188;51.188;16.374;2024-03-23T21:49:57;99309.18;;;4.89;100.00
37304;BME280;23188;51.188;16.374;2024-03-23T21:54:00;99301.67;;;4.88;100.00
37304;BME280;23188;51.188;16.374;2024-03-23T21:58:06;99295.44;;;4.87;100.00
37304;BME280;23188;51.188;16.374;2024-03-23T22:02:10;99289.25;;;4.82;100.00
37304;BME280;23188;51.188;16.374;2024-03-23T22:06:43;99284.58;;;4.77;100.00
37304;BME280;23188;51.188;16.374;2024-03-23T22:10:47;99279.27;;;4.73;100.00
37304;BME280;23188;51.188;16.374;2024-03-23T22:14:50;99271.53;;;4.70;100.00
37304;BME280;23188;51.188;16.374;2024-03-23T22:18:53;99262.14;;;4.69;100.00
37304;BME280;23188;51.188;16.374;2024-03-23T22:23:08;99264.88;;;4.65;100.00